Time;durP1;ratioP1;P1;durP2;ratioP2;P2;SDS_P1;SDS_P2;PMS_P1;PMS_P2;Temp;Humidity;BMP_temperature;BMP_pressure;BME280_temperature;BME280_humidity;BME280_pressure;Samples;Min_cycle;Max_cycle;Signal;HPM_P1;HPM_P2
2023/06/22 00:01:19;;;;;;;11.73;10.73;;;;;;;17.21;100.00;96477.00;7415673;19;20365;-70
2023/06/22 00:03:47;;;;;;;10.83;9.73;;;;;;;17.35;100.00;96471.03;7417179;19;20377;-70
2023/06/22 00:06:14;;;;;;;11.10;10.10;;;;;;;17.43;100.00;96478.78;7413984;19;20515;-70
2023/06/22 00:08:41;;;;;;;11.60;10.40;;;;;;;17.25;100.00;96477.84;7416104;19;20412;-70
2023/06/22 00:11:08;;;;;;;10.17;9.27;;;;;;;17.29;100.00;96475.97;7415077;19;20459;-70
2023/06/22 00:13:35;;;;;;;11.83;10.73;;;;;;;17.41;100.00;96480.28;7417210;19;20348;-70
2023/06/22 00:16:02;;;;;;;11.83;10.63;;;;;;;17.29;100.00;96459.94;7405416;19;20434;-70
2023/06/22 00:18:30;;;;;;;11.00;9.90;;;;;;;17.44;100.00;96466.19;7398041;19;20903;-70
2023/06/22 00:20:58;;;;;;;11.57;10.57;;;;;;;17.39;100.00;96469.97;7396818;19;20889;-70
2023/06/22 00:23:26;;;;;;;12.87;11.67;;;;;;;17.41;100.00;96462.34;7398269;19;20379;-70
2023/06/22 00:25:53;;;;;;;11.63;10.63;;;;;;;17.41;100.00;96458.91;7395397;19;20431;-70
2023/06/22 00:28:20;;;;;;;12.50;11.20;;;;;;;17.44;100.00;96488.34;7393662;19;20367;-70
2023/06/22 00:30:49;;;;;;;11.50;10.47;;;;;;;17.43;100.00;96496.72;7394554;19;20372;-69
2023/06/22 00:33:17;;;;;;;12.63;11.33;;;;;;;17.30;100.00;96479.41;7395073;19;20432;-70
2023/06/22 00:35:44;;;;;;;12.90;10.23;;;;;;;17.09;100.00;96466.56;7395646;19;20461;-70
2023/06/22 00:38:11;;;;;;;11.47;10.40;;;;;;;16.46;100.00;96465.38;7395117;19;20380;-70
2023/06/22 00:40:41;;;;;;;11.97;10.97;;;;;;;16.64;100.00;96462.19;7398045;19;20348;-70
2023/06/22 00:43:08;;;;;;;11.60;9.97;;;;;;;16.73;100.00;96449.38;7395095;19;20352;-70
2023/06/22 00:45:35;;;;;;;12.60;11.00;;;;;;;16.90;100.00;96475.50;7395311;19;20441;-70
2023/06/22 00:48:03;;;;;;;11.73;10.57;;;;;;;16.93;100.00;96468.66;7394643;19;21004;-70
2023/06/22 00:50:35;;;;;;;11.13;9.93;;;;;;;17.10;100.00;96462.78;7391723;19;20375;-70
2023/06/22 00:53:08;;;;;;;11.80;10.60;;;;;;;17.00;100.00;96456.19;7395687;19;20399;-71
2023/06/22 00:55:38;;;;;;;12.87;11.57;;;;;;;17.05;100.00;96465.75;7395770;19;20436;-70
2023/06/22 00:58:10;;;;;;;15.40;11.50;;;;;;;16.89;100.00;96441.94;7394989;19;20411;-70
2023/06/22 01:00:38;;;;;;;12.33;10.57;;;;;;;16.83;100.00;96446.84;7396747;19;20911;-70
2023/06/22 01:03:08;;;;;;;11.47;9.37;;;;;;;16.99;100.00;96456.53;7395149;19;20446;-70
2023/06/22 01:05:37;;;;;;;11.63;10.00;;;;;;;16.62;100.00;96453.75;7393117;19;20409;-70
2023/06/22 01:08:16;;;;;;;14.63;11.93;;;;;;;16.40;100.00;96466.03;7395483;19;20372;-70
2023/06/22 01:11:15;;;;;;;18.40;11.50;;;;;;;16.43;100.00;96473.34;7392461;19;20389;-70
2023/06/22 01:13:56;;;;;;;11.13;10.00;;;;;;;16.40;100.00;96471.38;7392940;19;20471;-70
2023/06/22 01:16:28;;;;;;;14.40;10.67;;;;;;;16.48;100.00;96473.03;7393539;19;20970;-70
2023/06/22 01:19:00;;;;;;;17.70;11.43;;;;;;;16.42;100.00;96477.91;7394071;19;20353;-70
2023/06/22 01:21:30;;;;;;;11.27;10.10;;;;;;;16.36;100.00;96476.69;7397140;19;20373;-70
2023/06/22 01:24:19;;;;;;;18.20;11.60;;;;;;;16.32;100.00;96480.44;7394482;19;20466;-70
2023/06/22 01:27:05;;;;;;;18.40;12.10;;;;;;;16.20;100.00;96487.50;7395039;19;20387;-70
2023/06/22 01:29:36;;;;;;;17.73;11.90;;;;;;;16.40;100.00;96493.50;7396306;19;20365;-70
2023/06/22 01:32:05;;;;;;;15.10;11.30;;;;;;;16.14;100.00;96456.13;7395656;19;20394;-70
2023/06/22 01:34:39;;;;;;;19.23;13.23;;;;;;;16.19;100.00;96485.19;7395122;19;20425;-70
2023/06/22 01:37:07;;;;;;;19.50;12.70;;;;;;;15.89;100.00;96442.41;7394534;19;20374;-70
2023/06/22 01:39:35;;;;;;;11.53;10.33;;;;;;;15.98;100.00;96448.28;7396088;19;20374;-70
2023/06/22 01:42:03;;;;;;;23.43;12.33;;;;;;;16.07;100.00;96469.38;7408041;19;20342;-70
2023/06/22 01:44:31;;;;;;;13.37;10.73;;;;;;;16.22;100.00;96474.56;7420096;19;20423;-70
2023/06/22 01:46:58;;;;;;;13.47;12.20;;;;;;;16.07;100.00;96456.03;7415545;19;20382;-70
2023/06/22 01:49:25;;;;;;;14.60;13.20;;;;;;;15.90;100.00;96462.66;7391959;19;20963;-70
2023/06/22 01:51:54;;;;;;;13.60;12.30;;;;;;;15.77;100.00;96463.97;7394400;19;20382;-70
2023/06/22 01:54:21;;;;;;;15.50;14.00;;;;;;;15.39;100.00;96377.63;7392348;19;20339;-70
2023/06/22 01:56:48;;;;;;;14.33;12.93;;;;;;;15.70;100.00;96448.59;7393969;19;20775;-70
2023/06/22 01:59:23;;;;;;;13.53;12.33;;;;;;;15.80;100.00;96440.00;7392492;19;20490;-70
2023/06/22 02:02:00;;;;;;;14.17;12.27;;;;;;;15.99;100.00;96441.06;7397861;19;20365;-70
2023/06/22 02:04:34;;;;;;;12.57;11.40;;;;;;;16.11;100.00;96449.63;7400551;19;20705;-70
2023/06/22 02:07:08;;;;;;;12.70;11.40;;;;;;;16.27;100.00;96434.22;7402743;19;20405;-70
2023/06/22 02:09:38;;;;;;;14.13;12.90;;;;;;;16.23;100.00;96441.44;7399850;19;20398;-70
2023/06/22 02:12:08;;;;;;;15.10;12.73;;;;;;;16.13;100.00;96427.91;7402804;19;20350;-70
2023/06/22 02:14:36;;;;;;;15.53;14.20;;;;;;;16.05;100.00;96432.41;7400680;19;20443;-70
2023/06/22 02:17:07;;;;;;;13.27;12.07;;;;;;;15.83;100.00;96407.28;7399965;19;20735;-70
2023/06/22 02:19:40;;;;;;;13.50;12.30;;;;;;;15.99;100.00;96407.16;7400768;19;20426;-70
2023/06/22 02:22:07;;;;;;;12.90;11.80;;;;;;;16.04;100.00;96417.53;7400000;19;20402;-70
2023/06/22 02:24:36;;;;;;;13.77;12.17;;;;;;;15.98;100.00;96404.84;7400748;19;20419;-70
2023/06/22 02:27:03;;;;;;;12.57;11.57;;;;;;;16.25;100.00;96433.81;7399217;19;20416;-70
2023/06/22 02:29:31;;;;;;;12.53;11.33;;;;;;;16.11;100.00;96412.28;7399996;19;20438;-70
2023/06/22 02:31:58;;;;;;;12.43;11.23;;;;;;;15.91;100.00;96402.84;7400872;19;20350;-70
2023/06/22 02:34:25;;;;;;;12.60;11.47;;;;;;;15.76;100.00;96425.06;7400512;19;20381;-70
2023/06/22 02:36:52;;;;;;;12.20;11.00;;;;;;;15.69;100.00;96398.31;7399303;19;20351;-70
2023/06/22 02:39:24;;;;;;;13.67;12.43;;;;;;;15.91;100.00;96398.28;7401023;19;20384;-70
2023/06/22 02:41:52;;;;;;;13.37;12.20;;;;;;;16.02;100.00;96425.09;7399492;19;20382;-70
2023/06/22 02:44:21;;;;;;;12.97;11.87;;;;;;;15.98;100.00;96412.84;7401365;19;20374;-70
2023/06/22 02:46:48;;;;;;;13.10;12.00;;;;;;;15.81;100.00;96422.88;7401114;19;20344;-70
2023/06/22 02:49:16;;;;;;;13.10;11.93;;;;;;;15.77;100.00;96435.41;7400637;19;20388;-70
2023/06/22 02:51:46;;;;;;;14.73;13.33;;;;;;;15.83;100.00;96439.28;7399784;19;20379;-70
2023/06/22 02:54:16;;;;;;;11.87;10.77;;;;;;;15.85;100.00;96423.72;7400648;19;20384;-70
2023/06/22 02:56:45;;;;;;;12.60;11.33;;;;;;;16.12;100.00;96442.38;7399777;19;20397;-70
2023/06/22 02:59:12;;;;;;;12.63;11.43;;;;;;;16.10;100.00;96420.66;7399356;19;20912;-70
2023/06/22 03:01:41;;;;;;;14.77;11.77;;;;;;;16.25;100.00;96455.16;7399177;19;20720;-70
2023/06/22 03:04:18;;;;;;;14.03;12.73;;;;;;;16.03;100.00;96463.22;7397710;19;20430;-70
2023/06/22 03:06:50;;;;;;;13.50;12.17;;;;;;;15.73;100.00;96466.53;7399859;19;20392;-70
2023/06/22 03:09:18;;;;;;;14.10;12.47;;;;;;;15.47;100.00;96440.56;7398030;19;20375;-70
2023/06/22 03:11:45;;;;;;;15.50;13.20;;;;;;;15.58;100.00;96462.84;7400313;19;20370;-69
2023/06/22 03:14:12;;;;;;;14.63;13.27;;;;;;;15.37;100.00;96451.84;7396089;19;20381;-69
2023/06/22 03:16:40;;;;;;;15.00;12.40;;;;;;;15.47;100.00;96440.56;7399510;19;20376;-70
2023/06/22 03:19:07;;;;;;;16.23;12.77;;;;;;;15.32;100.00;96447.53;7398473;19;20419;-69
2023/06/22 03:21:34;;;;;;;14.80;11.57;;;;;;;15.35;100.00;96424.75;7399509;19;20400;-70
2023/06/22 03:24:01;;;;;;;15.37;12.40;;;;;;;15.77;100.00;96470.06;7398244;19;20382;-69
2023/06/22 03:26:29;;;;;;;13.10;11.83;;;;;;;15.62;100.00;96469.06;7397419;19;20451;-70
2023/06/22 03:28:56;;;;;;;14.20;12.87;;;;;;;15.32;100.00;96476.84;7398061;19;20407;-70
2023/06/22 03:31:24;;;;;;;12.97;11.73;;;;;;;15.17;100.00;96528.31;7397412;19;20588;-69
2023/06/22 03:33:51;;;;;;;12.23;11.13;;;;;;;14.98;100.00;96557.59;7397755;19;20764;-69
2023/06/22 03:36:19;;;;;;;14.37;12.60;;;;;;;14.97;100.00;96569.38;7397539;19;20433;-69
2023/06/22 03:38:47;;;;;;;14.03;12.83;;;;;;;14.92;100.00;96557.09;7397797;19;20428;-69
2023/06/22 03:41:14;;;;;;;16.90;13.70;;;;;;;15.10;100.00;96556.72;7400916;19;20345;-69
2023/06/22 03:43:42;;;;;;;16.60;12.53;;;;;;;15.04;100.00;96537.56;7397719;19;20382;-70
2023/06/22 03:46:09;;;;;;;15.73;14.23;;;;;;;14.94;100.00;96503.50;7394531;19;20426;-70
2023/06/22 03:48:36;;;;;;;15.90;14.07;;;;;;;15.14;100.00;96497.06;7398027;19;20386;-69
2023/06/22 03:51:03;;;;;;;15.40;13.90;;;;;;;15.37;100.00;96526.44;7397239;19;20757;-70
2023/06/22 03:53:30;;;;;;;14.10;12.70;;;;;;;15.53;100.00;96534.34;7397767;19;20401;-70
2023/06/22 03:55:57;;;;;;;18.17;14.13;;;;;;;15.16;100.00;96483.38;7394857;19;20438;-70
2023/06/22 03:58:23;;;;;;;16.10;14.60;;;;;;;15.31;100.00;96480.63;7397462;19;20446;-69
2023/06/22 04:00:52;;;;;;;16.87;15.33;;;;;;;15.48;100.00;96498.06;7396266;19;20406;-70
2023/06/22 04:03:19;;;;;;;17.37;15.50;;;;;;;15.48;100.00;96490.06;7397642;19;20379;-70
2023/06/22 04:05:47;;;;;;;17.67;14.70;;;;;;;15.64;100.00;96514.00;7395187;19;20415;-70
2023/06/22 04:08:14;;;;;;;17.00;15.30;;;;;;;15.33;100.00;96485.59;7397638;19;20396;-70
2023/06/22 04:10:41;;;;;;;18.83;16.87;;;;;;;15.37;100.00;96516.53;7394954;19;20378;-70
2023/06/22 04:13:08;;;;;;;19.23;17.40;;;;;;;15.13;100.00;96500.09;7397025;19;20371;-70
2023/06/22 04:15:35;;;;;;;19.90;17.83;;;;;;;15.20;100.00;96487.66;7394265;19;20978;-70
2023/06/22 04:18:02;;;;;;;17.00;15.30;;;;;;;15.48;100.00;96505.28;7397135;19;20369;-70
2023/06/22 04:20:31;;;;;;;18.63;15.80;;;;;;;15.64;100.00;96517.44;7396178;19;20364;-70
2023/06/22 04:22:59;;;;;;;17.57;15.93;;;;;;;15.76;100.00;96516.50;7398577;19;20353;-70
2023/06/22 04:25:26;;;;;;;19.07;17.27;;;;;;;15.59;100.00;96498.25;7394312;19;20567;-70
2023/06/22 04:27:53;;;;;;;19.60;17.80;;;;;;;15.53;100.00;96511.13;7397528;19;20376;-70
2023/06/22 04:30:20;;;;;;;17.77;15.97;;;;;;;15.60;100.00;96503.25;7394833;19;20975;-70
2023/06/22 04:32:56;;;;;;;18.67;17.07;;;;;;;15.73;100.00;96469.22;7396761;19;20369;-70
2023/06/22 04:35:28;;;;;;;19.90;18.30;;;;;;;15.47;100.00;96431.81;7395100;19;20845;-70
2023/06/22 04:37:57;;;;;;;18.00;16.03;;;;;;;15.98;100.00;96496.28;7397450;19;20346;-70
2023/06/22 04:40:24;;;;;;;18.30;16.70;;;;;;;16.04;100.00;96462.09;7395579;19;20735;-70
2023/06/22 04:42:53;;;;;;;18.30;16.70;;;;;;;16.15;100.00;96447.00;7397167;19;20411;-70
2023/06/22 04:45:21;;;;;;;20.27;18.10;;;;;;;16.17;100.00;96460.78;7395380;19;20426;-70
2023/06/22 04:47:48;;;;;;;21.20;19.30;;;;;;;16.38;100.00;96469.06;7394797;19;20357;-70
2023/06/22 04:50:15;;;;;;;21.00;18.93;;;;;;;16.30;100.00;96430.09;7395229;19;20381;-70
2023/06/22 04:52:42;;;;;;;19.80;17.47;;;;;;;16.37;100.00;96443.53;7394494;19;20370;-70
2023/06/22 04:55:09;;;;;;;20.03;17.37;;;;;;;16.46;100.00;96446.72;7395741;19;20422;-71
2023/06/22 04:57:39;;;;;;;19.17;17.53;;;;;;;16.71;100.00;96473.00;7394907;19;20366;-70
2023/06/22 05:00:12;;;;;;;19.33;17.50;;;;;;;16.90;100.00;96467.50;7395540;19;20410;-70
2023/06/22 05:02:40;;;;;;;19.03;17.23;;;;;;;16.74;100.00;96441.00;7394215;19;20939;-69
2023/06/22 05:05:08;;;;;;;20.40;18.40;;;;;;;16.87;100.00;96433.50;7396829;19;20410;-70
2023/06/22 05:07:36;;;;;;;20.00;18.00;;;;;;;16.67;100.00;96384.03;7395807;19;20339;-70
2023/06/22 05:10:04;;;;;;;18.73;17.03;;;;;;;17.19;100.00;96457.91;7395467;19;20363;-70
2023/06/22 05:12:31;;;;;;;19.03;16.80;;;;;;;17.32;100.00;96455.75;7396358;19;20375;-70
2023/06/22 05:14:57;;;;;;;18.47;16.57;;;;;;;17.43;100.00;96435.25;7394658;19;20764;-70
2023/06/22 05:17:24;;;;;;;20.10;18.20;;;;;;;17.33;100.00;96420.63;7394578;19;20408;-70
2023/06/22 05:19:52;;;;;;;18.43;16.73;;;;;;;17.38;100.00;96408.84;7397683;19;20948;-70
2023/06/22 05:22:19;;;;;;;16.50;15.00;;;;;;;17.32;100.00;96375.56;7394163;19;20384;-70
2023/06/22 05:24:46;;;;;;;17.87;16.20;;;;;;;17.66;100.00;96435.06;7395462;19;20448;-71
2023/06/22 05:27:14;;;;;;;16.53;14.93;;;;;;;17.91;100.00;96433.41;7394859;19;20384;-70
2023/06/22 05:29:42;;;;;;;15.23;13.93;;;;;;;18.04;100.00;96428.53;7395704;19;20373;-70
2023/06/22 05:32:09;;;;;;;15.10;13.80;;;;;;;18.09;100.00;96406.75;7395109;19;20783;-70
2023/06/22 05:34:37;;;;;;;16.27;14.77;;;;;;;18.31;100.00;96413.78;7393484;19;20401;-70
2023/06/22 05:37:04;;;;;;;16.87;15.37;;;;;;;18.54;100.00;96440.28;7398638;19;20369;-70
2023/06/22 05:39:31;;;;;;;14.63;13.33;;;;;;;18.67;100.00;96422.00;7404602;19;20381;-70
2023/06/22 05:41:58;;;;;;;14.63;13.13;;;;;;;18.84;100.00;96425.94;7401707;19;20399;-70
2023/06/22 05:44:25;;;;;;;14.03;12.70;;;;;;;18.90;100.00;96414.47;7402625;19;20409;-70
2023/06/22 05:46:52;;;;;;;15.37;13.90;;;;;;;19.18;100.00;96434.44;7403021;19;20336;-69
2023/06/22 05:49:19;;;;;;;13.73;12.33;;;;;;;19.27;100.00;96426.81;7403010;19;20887;-69
2023/06/22 05:51:46;;;;;;;14.03;12.77;;;;;;;19.51;100.00;96452.16;7399277;19;20356;-69
2023/06/22 05:54:13;;;;;;;15.27;13.90;;;;;;;19.39;100.00;96429.13;7402837;19;20385;-69
2023/06/22 05:56:40;;;;;;;13.37;12.37;;;;;;;19.62;100.00;96433.41;7401257;19;20524;-70
2023/06/22 05:59:07;;;;;;;12.50;11.33;;;;;;;19.78;100.00;96418.47;7404441;19;20346;-69
2023/06/22 06:01:35;;;;;;;14.10;11.67;;;;;;;20.12;100.00;96441.44;7403405;19;20388;-69
2023/06/22 06:04:09;;;;;;;13.67;12.50;;;;;;;20.44;100.00;96433.38;7399859;19;20377;-69
2023/06/22 06:06:37;;;;;;;12.93;10.87;;;;;;;20.88;100.00;96459.72;7401553;19;20358;-69
2023/06/22 06:09:04;;;;;;;11.43;10.33;;;;;;;20.90;100.00;96452.03;7401338;19;20357;-70
2023/06/22 06:11:31;;;;;;;11.40;10.50;;;;;;;21.06;100.00;96444.28;7399509;19;20743;-69
2023/06/22 06:13:58;;;;;;;12.83;11.70;;;;;;;21.14;100.00;96421.59;7399392;19;20423;-69
2023/06/22 06:16:25;;;;;;;9.23;8.43;;;;;;;21.18;100.00;96433.09;7398552;19;20973;-69
2023/06/22 06:18:54;;;;;;;10.53;9.50;;;;;;;21.47;100.00;96446.38;7399724;19;20381;-69
2023/06/22 06:21:22;;;;;;;10.30;9.50;;;;;;;21.53;100.00;96448.28;7402138;19;20393;-69
2023/06/22 06:23:49;;;;;;;10.70;9.80;;;;;;;21.44;100.00;96449.88;7400917;19;20880;-69
2023/06/22 06:26:23;;;;;;;11.20;10.10;;;;;;;21.75;100.00;96437.34;7400064;19;20424;-69
2023/06/22 06:28:49;;;;;;;10.80;9.90;;;;;;;21.82;100.00;96448.84;7399853;19;20731;-69
2023/06/22 06:31:17;;;;;;;10.23;9.43;;;;;;;22.34;100.00;96456.91;7399505;19;20947;-69
2023/06/22 06:33:44;;;;;;;10.43;9.53;;;;;;;21.95;100.00;96451.06;7399530;19;21028;-69
2023/06/22 06:36:11;;;;;;;10.40;9.40;;;;;;;21.95;100.00;96453.75;7400365;19;20418;-69
2023/06/22 06:38:38;;;;;;;10.60;9.70;;;;;;;21.70;100.00;96408.19;7399407;19;20371;-69
2023/06/22 06:41:05;;;;;;;10.17;9.37;;;;;;;22.25;100.00;96440.44;7401238;19;20445;-69
2023/06/22 06:43:32;;;;;;;10.73;9.73;;;;;;;22.05;100.00;96439.44;7399337;19;20756;-69
2023/06/22 06:45:59;;;;;;;11.30;10.23;;;;;;;22.27;100.00;96429.25;7400707;19;20406;-69
2023/06/22 06:48:26;;;;;;;10.83;9.93;;;;;;;22.27;100.00;96408.47;7396572;19;20965;-69
2023/06/22 06:50:53;;;;;;;10.63;9.73;;;;;;;22.78;100.00;96449.13;7400252;19;20357;-69
2023/06/22 06:53:19;;;;;;;11.17;9.30;;;;;;;22.68;100.00;96450.75;7399532;19;20378;-69
2023/06/22 06:55:46;;;;;;;9.80;9.00;;;;;;;22.65;100.00;96427.31;7399586;19;20441;-70
2023/06/22 06:58:13;;;;;;;10.73;9.70;;;;;;;22.69;100.00;96436.88;7399038;19;20378;-69
2023/06/22 07:00:40;;;;;;;10.93;9.80;;;;;;;23.08;100.00;96437.59;7400636;19;20397;-69
2023/06/22 07:03:08;;;;;;;10.93;9.83;;;;;;;22.90;100.00;96425.13;7399101;19;20410;-69
2023/06/22 07:05:35;;;;;;;12.00;10.17;;;;;;;23.08;100.00;96408.69;7398708;19;20804;-70
2023/06/22 07:08:02;;;;;;;11.93;10.83;;;;;;;23.36;100.00;96410.25;7399443;19;20374;-69
2023/06/22 07:10:29;;;;;;;10.23;9.33;;;;;;;23.62;100.00;96451.16;7401692;19;20348;-69
2023/06/22 07:12:57;;;;;;;10.73;9.67;;;;;;;23.72;100.00;96455.66;7398590;19;20378;-70
2023/06/22 07:15:24;;;;;;;12.40;10.83;;;;;;;23.97;100.00;96441.75;7398873;19;20438;-70
2023/06/22 07:17:51;;;;;;;10.70;9.00;;;;;;;24.10;100.00;96421.06;7399539;19;20413;-69
2023/06/22 07:20:19;;;;;;;10.83;9.80;;;;;;;24.39;100.00;96443.75;7401505;19;20347;-69
2023/06/22 07:22:46;;;;;;;10.87;9.80;;;;;;;24.22;100.00;96419.72;7398396;19;20378;-70
2023/06/22 07:25:17;;;;;;;9.73;8.93;;;;;;;24.77;100.00;96438.03;7400523;19;20416;-70
2023/06/22 07:28:05;;;;;;;10.90;10.00;;;;;;;24.44;100.00;96418.97;7398839;19;20438;-69
2023/06/22 07:30:33;;;;;;;10.30;9.40;;;;;;;25.09;100.00;96450.94;7398018;19;20380;-70
2023/06/22 07:33:03;;;;;;;10.73;9.63;;;;;;;25.30;100.00;96449.72;7399252;19;20383;-69
2023/06/22 07:35:31;;;;;;;11.57;10.37;;;;;;;25.32;100.00;96434.59;7396652;19;20424;-70
2023/06/22 07:37:58;;;;;;;9.50;8.60;;;;;;;25.12;100.00;96384.41;7401712;19;20343;-69
2023/06/22 07:40:26;;;;;;;10.30;9.40;;;;;;;25.44;100.00;96433.16;7397875;19;20726;-69
2023/06/22 07:42:53;;;;;;;9.50;8.63;;;;;;;25.50;100.00;96434.19;7401067;19;20378;-70
2023/06/22 07:45:20;;;;;;;8.67;7.87;;;;;;;25.40;100.00;96412.78;7416275;19;20396;-69
2023/06/22 07:47:47;;;;;;;9.93;8.93;;;;;;;25.95;100.00;96414.59;7415112;19;20360;-70
2023/06/22 07:50:14;;;;;;;11.07;8.97;;;;;;;25.62;100.00;96438.94;7399893;19;20411;-70
2023/06/22 07:52:41;;;;;;;9.40;8.60;;;;;;;25.97;100.00;96419.59;7394874;19;20945;-70
2023/06/22 07:55:08;;;;;;;9.47;8.67;;;;;;;25.96;100.00;96418.81;7397377;19;20426;-69
2023/06/22 07:57:36;;;;;;;8.87;8.03;;;;;;;26.01;100.00;96429.13;7397799;19;20346;-70
2023/06/22 08:00:13;;;;;;;9.17;8.40;;;;;;;26.61;100.00;96445.84;7397785;19;20890;-69
2023/06/22 08:02:41;;;;;;;8.07;7.37;;;;;;;26.71;100.00;96439.38;7396503;19;20393;-70
2023/06/22 08:05:09;;;;;;;9.50;8.70;;;;;;;26.43;100.00;96435.44;7396690;19;20445;-69
2023/06/22 08:07:49;;;;;;;9.43;8.27;;;;;;;26.44;100.00;96414.50;7398481;19;20943;-70
2023/06/22 08:10:17;;;;;;;10.03;9.13;;;;;;;26.49;100.00;96428.34;7398121;19;20400;-69
2023/06/22 08:12:44;;;;;;;9.53;8.57;;;;;;;26.53;100.00;96420.09;7394839;19;20406;-70
2023/06/22 08:15:11;;;;;;;9.20;8.30;;;;;;;26.48;100.00;96413.25;7397328;19;20439;-69
2023/06/22 08:17:38;;;;;;;10.50;9.60;;;;;;;26.49;100.00;96428.34;7396813;19;20369;-70
2023/06/22 08:20:09;;;;;;;10.00;9.13;;;;;;;26.45;100.00;96405.22;7399447;19;20355;-69
2023/06/22 08:22:36;;;;;;;9.40;8.60;;;;;;;26.34;100.00;96404.69;7396503;19;20386;-69
2023/06/22 08:25:04;;;;;;;9.10;8.40;;;;;;;26.56;100.00;96396.75;7396669;19;20430;-70
2023/06/22 08:27:31;;;;;;;8.63;7.93;;;;;;;26.82;100.00;96406.50;7398076;19;20344;-70
2023/06/22 08:29:59;;;;;;;9.60;8.70;;;;;;;27.27;99.49;96428.09;7397602;19;20906;-70
2023/06/22 08:32:30;;;;;;;9.53;8.73;;;;;;;26.96;99.41;96413.47;7395079;19;20382;-70
2023/06/22 08:34:57;;;;;;;9.50;8.70;;;;;;;27.13;96.65;96419.63;7394360;19;20833;-70
2023/06/22 08:37:30;;;;;;;9.73;8.57;;;;;;;26.95;97.98;96429.00;7395988;19;20776;-70
2023/06/22 08:40:09;;;;;;;8.60;7.90;;;;;;;27.24;98.05;96430.91;7393688;19;20375;-70
2023/06/22 08:42:38;;;;;;;9.60;8.60;;;;;;;27.56;94.76;96435.38;7397304;19;20392;-70
2023/06/22 08:45:05;;;;;;;12.70;8.77;;;;;;;27.73;95.18;96422.47;7394462;19;21010;-70
2023/06/22 08:47:33;;;;;;;9.23;8.40;;;;;;;27.66;90.03;96418.78;7396471;19;20776;-70
2023/06/22 08:50:02;;;;;;;8.57;7.83;;;;;;;27.58;90.33;96428.31;7395072;19;20412;-71
2023/06/22 08:52:29;;;;;;;8.60;7.97;;;;;;;28.03;90.04;96434.69;7395864;19;20407;-70
2023/06/22 08:54:58;;;;;;;9.47;8.67;;;;;;;28.02;87.05;96422.31;7395223;19;20478;-71
2023/06/22 08:57:25;;;;;;;9.97;8.97;;;;;;;27.32;91.04;96429.50;7396920;19;20443;-70
2023/06/22 08:59:52;;;;;;;8.17;7.47;;;;;;;27.38;89.14;96409.53;7396466;19;20719;-70
2023/06/22 09:02:19;;;;;;;8.47;7.70;;;;;;;27.65;88.68;96430.84;7396407;19;20935;-71
2023/06/22 09:04:46;;;;;;;13.57;8.40;;;;;;;27.65;88.50;96417.25;7396215;19;20423;-71
2023/06/22 09:07:14;;;;;;;8.90;8.03;;;;;;;27.90;87.88;96427.31;7396372;19;20384;-71
2023/06/22 09:09:41;;;;;;;9.17;8.27;;;;;;;27.44;86.14;96389.97;7396628;19;20345;-71
2023/06/22 09:12:08;;;;;;;9.90;9.10;;;;;;;27.73;85.59;96415.06;7393678;19;20446;-70
2023/06/22 09:14:35;;;;;;;12.97;7.83;;;;;;;27.78;85.61;96411.81;7397114;19;20387;-70
2023/06/22 09:17:02;;;;;;;8.87;8.07;;;;;;;27.83;83.45;96429.53;7396361;19;20416;-72
2023/06/22 09:19:29;;;;;;;9.50;7.87;;;;;;;28.05;84.47;96422.19;7394618;19;20398;-70
2023/06/22 09:21:57;;;;;;;8.00;7.40;;;;;;;27.56;85.36;96416.38;7395145;19;20348;-70
2023/06/22 09:24:24;;;;;;;9.53;8.37;;;;;;;27.85;87.17;96408.09;7394672;19;20379;-70
2023/06/22 09:26:51;;;;;;;7.13;6.50;;;;;;;28.23;79.62;96408.75;7393482;19;20370;-70
2023/06/22 09:29:17;;;;;;;8.33;7.63;;;;;;;28.26;80.95;96393.50;7395484;19;20407;-70
2023/06/22 09:31:45;;;;;;;8.10;7.40;;;;;;;28.39;79.41;96423.41;7392558;19;20916;-71
2023/06/22 09:34:12;;;;;;;10.20;8.73;;;;;;;28.27;80.93;96405.94;7396543;19;20355;-70
2023/06/22 09:36:41;;;;;;;9.23;8.43;;;;;;;28.40;81.48;96365.09;7393915;19;20409;-70
2023/06/22 09:39:08;;;;;;;7.47;6.87;;;;;;;28.02;78.41;96371.41;7396336;19;20347;-70
2023/06/22 09:41:35;;;;;;;9.93;8.43;;;;;;;28.67;77.40;96400.66;7394717;19;20381;-71
2023/06/22 09:44:01;;;;;;;8.40;7.70;;;;;;;29.01;78.47;96399.06;7394516;19;20404;-70
2023/06/22 09:46:28;;;;;;;8.60;8.00;;;;;;;28.89;76.65;96392.50;7392789;19;20411;-70
2023/06/22 09:48:56;;;;;;;7.97;7.27;;;;;;;28.98;77.56;96399.94;7395378;19;20405;-70
2023/06/22 09:51:23;;;;;;;9.60;8.73;;;;;;;29.03;77.82;96391.22;7392833;19;20416;-72
2023/06/22 09:53:52;;;;;;;9.50;7.70;;;;;;;29.11;76.44;96393.22;7395255;19;20380;-70
2023/06/22 09:56:19;;;;;;;8.60;8.00;;;;;;;28.73;77.70;96388.00;7391071;19;20448;-70
2023/06/22 09:58:46;;;;;;;8.50;7.80;;;;;;;28.95;74.96;96376.34;7394709;19;20367;-70
2023/06/22 10:01:17;;;;;;;8.30;7.60;;;;;;;29.08;74.27;96385.16;7394397;19;20416;-71
2023/06/22 10:03:44;;;;;;;8.33;7.73;;;;;;;28.85;75.33;96359.19;7396203;19;20344;-70
2023/06/22 10:06:11;;;;;;;7.70;7.10;;;;;;;29.00;73.40;96362.16;7391279;19;20428;-70
2023/06/22 10:08:39;;;;;;;8.27;7.57;;;;;;;28.83;72.98;96362.31;7394400;19;20408;-70
2023/06/22 10:11:06;;;;;;;8.27;7.33;;;;;;;29.11;72.47;96371.44;7394515;19;20340;-71
2023/06/22 10:13:32;;;;;;;9.60;8.23;;;;;;;29.09;72.06;96383.97;7393151;19;20383;-71
2023/06/22 10:15:59;;;;;;;8.20;7.50;;;;;;;28.79;73.46;96363.66;7392636;19;20404;-71
2023/06/22 10:18:26;;;;;;;9.03;7.57;;;;;;;29.06;70.21;96352.19;7394595;19;20427;-71
2023/06/22 10:20:53;;;;;;;8.43;6.33;;;;;;;29.08;67.66;96328.72;7393163;19;20758;-71
2023/06/22 10:23:20;;;;;;;8.43;7.73;;;;;;;29.86;70.10;96360.31;7399417;19;20685;-71
2023/06/22 10:25:48;;;;;;;7.77;7.03;;;;;;;29.48;70.61;96351.75;7398062;19;20984;-71
2023/06/22 10:28:15;;;;;;;10.40;7.00;;;;;;;29.90;69.72;96336.38;7403027;19;20480;-71
2023/06/22 10:30:42;;;;;;;7.47;6.73;;;;;;;29.99;66.33;96343.81;7400049;19;20352;-71
2023/06/22 10:33:11;;;;;;;7.10;6.40;;;;;;;29.69;68.63;96369.97;7399996;19;20425;-71
2023/06/22 10:35:38;;;;;;;8.63;7.73;;;;;;;30.18;67.24;96371.84;7398222;19;20416;-71
2023/06/22 10:38:06;;;;;;;9.43;7.87;;;;;;;29.94;67.96;96353.34;7402126;19;20363;-71
2023/06/22 10:40:33;;;;;;;15.10;7.27;;;;;;;30.10;66.18;96367.94;7399742;19;20367;-71
2023/06/22 10:43:00;;;;;;;7.10;6.50;;;;;;;29.56;66.71;96345.56;7398354;19;20355;-71
2023/06/22 10:45:27;;;;;;;8.17;6.23;;;;;;;29.22;66.94;96348.47;7399798;19;20404;-70
2023/06/22 10:47:55;;;;;;;7.17;6.47;;;;;;;29.43;66.37;96353.84;7398162;19;20383;-71
2023/06/22 10:50:24;;;;;;;6.67;6.07;;;;;;;30.04;62.54;96354.09;7399506;19;20388;-71
2023/06/22 10:52:51;;;;;;;7.93;5.80;;;;;;;30.21;61.50;96340.97;7399499;19;20924;-71
2023/06/22 10:55:18;;;;;;;6.90;6.30;;;;;;;29.95;61.77;96324.88;7399302;19;20420;-71
2023/06/22 10:57:46;;;;;;;7.40;6.70;;;;;;;30.14;62.97;96335.78;7398179;19;20383;-70
2023/06/22 11:00:15;;;;;;;5.83;5.27;;;;;;;30.83;62.36;96333.13;7401602;19;20412;-71
2023/06/22 11:02:43;;;;;;;6.67;6.07;;;;;;;30.80;60.46;96319.63;7399692;19;20352;-71
2023/06/22 11:05:10;;;;;;;6.33;5.73;;;;;;;30.69;57.93;96314.66;7399141;19;20786;-71
2023/06/22 11:07:41;;;;;;;6.37;5.77;;;;;;;30.33;57.82;96301.84;7398320;19;20742;-71
2023/06/22 11:10:12;;;;;;;6.50;5.93;;;;;;;30.89;58.91;96322.34;7399594;19;20353;-71
2023/06/22 11:12:39;;;;;;;6.37;5.87;;;;;;;30.89;60.21;96319.63;7397805;19;20379;-71
2023/06/22 11:15:07;;;;;;;6.17;5.67;;;;;;;30.76;59.42;96302.66;7398882;19;20424;-71
2023/06/22 11:17:34;;;;;;;7.57;6.87;;;;;;;30.88;59.34;96309.91;7398765;19;20429;-71
2023/06/22 11:20:04;;;;;;;7.13;6.63;;;;;;;31.07;60.58;96316.81;7399717;19;20385;-71
2023/06/22 11:22:34;;;;;;;6.80;6.20;;;;;;;31.57;59.96;96319.16;7399721;19;20385;-71